Date,TemperatureHighF,TemperatureAvgF,TemperatureLowF,DewpointHighF,DewpointAvgF,DewpointLowF,HumidityHigh,HumidityAvg,HumidityLow,PressureMaxIn,PressureMinIn,WindSpeedMaxMPH,WindSpeedAvgMPH,GustSpeedMaxMPH,PrecipitationSumIn
2014-1-1,76.1,59.6,45.4,26.0,20.5,13.0,34,23,14,30.13,30.05,10,1,21,1.37
2014-1-2,75.6,60.5,50.1,29.0,24.6,20.0,36,26,16,30.13,30.00,6,0,8,1.04
2014-1-3,76.2,57.5,47.4,38.0,30.4,24.0,49,37,17,30.04,29.88,3,0,7,0.77
2014-1-4,71.8,55.0,43.0,42.0,35.4,28.0,71,51,24,30.02,29.90,2,0,6,0.73
2014-1-5,69.7,57.9,46.4,33.0,14.1,3.0,56,21,8,30.20,30.02,7,1,17,0.89
2014-1-6,68.7,57.9,46.9,16.0,9.4,4.0,25,15,10,30.27,30.13,4,0,11,2.22
2014-1-7,66.3,53.0,40.9,33.0,19.3,9.0,36,27,17,30.13,30.02,1,0,3,0.72
2014-1-8,71.5,55.8,45.1,42.0,31.7,22.0,60,41,26,30.09,29.96,3,0,6,1.28
2014-1-9,68.5,51.6,42.4,37.0,32.2,25.0,62,49,19,30.07,29.96,4,0,12,1.08
2014-1-10,78.4,60.0,46.7,40.0,32.7,29.0,50,37,20,30.11,29.98,3,0,10,1.56
2014-1-11,75.7,58.9,46.9,41.0,34.1,29.0,60,41,23,30.17,30.02,2,0,6,1.28
2014-1-12,64.5,57.6,49.9,41.0,33.9,16.0,67,44,17,30.21,30.06,9,1,13,0.96
2014-1-13,70.1,61.4,51.9,22.0,19.5,15.0,30,20,15,30.38,30.21,6,1,15,1.42
2014-1-14,75.1,63.6,50.0,22.0,16.9,12.0,30,18,9,30.37,30.27,10,2,20,2.07
2014-1-15,77.7,66.4,56.6,21.0,17.5,14.0,21,16,10,30.30,30.17,7,1,19,2.02
2014-1-16,77.6,66.8,58.0,18.0,9.7,3.0,18,12,6,30.21,30.10,9,2,18,2.04
2014-1-17,78.8,65.2,50.7,26.0,12.3,7.0,23,13,8,30.18,30.06,5,1,10,1.28
2014-1-18,78.4,60.0,46.6,25.0,13.1,7.0,25,17,7,30.13,30.02,4,0,11,0.43
2014-1-19,79.9,59.3,45.1,28.0,16.0,10.0,31,19,9,30.13,30.02,1,0,4,1.14
2014-1-20,77.5,58.9,44.4,25.0,12.9,-99.9,28,18,2,30.20,30.08,4,0,12,0.62
2014-1-21,75.5,62.6,51.9,27.0,17.4,13.0,25,18,11,30.20,30.08,4,0,9,0.37
2014-1-22,78.8,63.6,48.8,35.0,20.0,12.0,43,21,8,30.08,29.86,8,0,8,0.63
2014-1-23,71.9,58.3,42.1,28.0,20.5,16.0,48,26,12,30.11,29.87,11,2,18,0.00
2014-1-24,68.1,63.0,59.5,24.0,21.1,17.0,25,20,17,30.24,30.11,6,1,15,0.00
2014-1-25,75.9,62.9,50.9,37.0,25.4,19.0,45,25,15,30.21,30.08,3,0,8,0.00
2014-1-26,69.4,55.6,45.0,45.0,33.7,22.0,73,45,28,30.12,30.00,3,0,7,0.00
2014-1-27,77.2,55.7,41.7,45.0,36.9,27.0,81,53,16,30.07,29.96,9,0,10,0.00
2014-1-28,80.5,61.5,46.9,32.0,26.8,20.0,45,28,13,30.10,30.00,4,0,11,0.00
2014-1-29,82.6,63.4,50.1,48.0,38.1,29.0,68,41,26,30.09,29.90,5,0,6,0.02
2014-1-30,56.8,52.7,47.3,52.0,48.5,43.0,93,86,65,29.93,29.83,2,0,5,0.11
2014-1-31,60.0,51.5,44.2,49.0,38.1,27.0,92,63,39,29.96,29.83,5,1,16,0.36
2014-2-1,59.5,48.1,38.2,30.0,22.7,14.0,60,39,18,30.05,29.95,7,1,13,1.07
2014-2-2,58.4,44.7,33.0,39.0,28.6,19.0,84,55,37,30.05,29.91,4,0,14,0.39
2014-2-3,57.9,46.6,35.0,38.0,33.2,28.0,88,62,41,29.97,29.84,4,1,11,0.67
2014-2-4,59.2,47.4,34.5,40.0,32.2,27.0,75,57,37,30.04,29.94,2,0,7,0.29
2014-2-5,46.3,41.0,37.3,33.0,31.9,31.0,78,70,60,30.10,30.02,1,0,2,0.01
2014-2-6,48.7,48.3,48.0,47.0,46.6,46.0,95,93,92,30.01,29.93,5,0,5,0.16
2014-2-7,56.4,49.2,44.9,48.0,45.8,44.0,96,88,65,30.17,30.00,3,0,5,0.81
2014-2-8,64.3,53.0,46.9,50.0,47.1,44.0,94,81,57,30.23,30.15,4,0,8,1.16
2014-2-9,65.6,55.0,50.0,51.0,49.0,47.0,93,81,56,30.19,30.05,4,0,5,0.96
2014-2-10,70.2,56.1,43.8,50.0,43.8,40.0,95,67,38,30.12,30.00,8,1,13,1.29
2014-2-11,77.5,59.7,45.3,45.0,36.1,20.0,79,46,24,30.10,30.00,3,0,6,1.63
2014-2-12,82.2,63.2,47.3,33.0,24.5,16.0,34,24,11,30.14,30.02,8,0,8,0.44
2014-2-13,86.6,64.9,52.0,39.0,21.7,-99.9,35,22,12,30.08,29.96,3,0,8,0.01
2014-2-14,89.1,68.3,51.4,33.0,21.0,15.0,31,18,8,30.06,29.94,5,1,9,0.51
2014-2-15,81.5,63.3,49.6,39.0,28.1,16.0,47,28,15,30.03,29.94,3,0,5,0.28
2014-2-16,82.0,63.4,49.7,42.0,35.7,31.0,52,37,20,30.06,29.93,5,0,11,1.41
2014-2-17,75.0,58.7,45.7,46.0,40.1,34.0,70,52,30,30.06,29.95,7,1,12,1.23
2014-2-18,79.9,54.2,45.1,50.0,36.1,-99.9,100,63,17,30.03,29.91,2,0,9,0.99
2014-2-19,74.3,58.8,43.7,46.0,36.2,22.0,84,50,14,30.00,29.87,9,1,17,1.36
2014-2-20,76.2,61.6,50.7,41.0,31.2,21.0,68,35,16,30.09,29.97,6,1,15,1.64
2014-2-21,80.3,61.4,45.0,38.0,27.9,21.0,41,29,14,30.01,29.84,2,0,7,1.37
2014-2-22,77.9,58.9,43.4,38.0,32.1,26.0,52,38,20,29.92,29.82,4,0,8,0.24
2014-2-23,76.4,58.6,43.6,42.0,34.5,30.0,65,44,19,29.97,29.88,3,0,8,0.03
2014-2-24,76.7,42.3,42.0,41.0,6.3,-99.9,69,47,21,30.00,29.89,6,0,10,0.52
2014-2-25,73.3,55.9,40.6,49.0,42.3,28.0,91,66,19,30.01,29.91,5,0,11,0.52
2014-2-26,61.9,55.2,52.0,51.0,48.4,46.0,93,79,58,30.05,29.93,4,0,9,1.40
2014-2-27,67.3,57.8,51.4,53.0,48.6,44.0,96,74,46,29.99,29.82,6,1,10,2.05
2014-2-28,56.8,52.3,48.9,55.0,50.0,47.0,95,91,84,29.81,29.57,13,1,16,1.99
2014-3-1,56.1,50.7,45.4,51.0,48.2,44.0,96,91,78,29.93,29.70,10,0,10,0.14
2014-3-2,55.0,50.7,45.8,52.0,48.9,45.0,97,93,86,30.12,29.93,1,0,4,0.01
2014-3-3,71.3,56.5,46.3,53.0,48.9,46.0,97,79,44,30.12,29.98,2,0,8,0.97
2014-3-4,73.0,58.8,48.2,52.0,48.0,44.0,93,71,36,30.03,29.92,9,1,17,1.75
2014-3-5,77.9,60.7,45.9,55.0,48.2,42.0,89,67,28,30.07,29.97,5,0,9,1.97
2014-3-6,76.8,61.3,51.1,56.0,43.9,-99.9,93,63,37,30.06,29.92,5,1,21,2.19
2014-3-7,75.4,62.4,48.3,41.0,33.6,26.0,70,38,17,30.04,29.92,8,1,16,2.42
2014-3-8,78.0,67.4,57.3,32.0,27.5,23.0,34,23,15,30.16,30.00,13,2,18,2.07
2014-3-9,81.8,66.1,51.0,37.0,28.8,23.0,44,26,15,30.19,30.06,8,1,17,1.45
2014-3-10,81.2,63.8,48.0,46.0,35.0,30.0,57,37,17,30.09,29.96,7,1,14,2.51
2014-3-11,73.1,62.8,48.8,46.0,33.3,19.0,72,38,18,30.02,29.93,8,2,16,2.25
2014-3-12,71.1,63.8,57.2,27.0,21.2,12.0,24,20,15,30.08,29.92,16,4,20,3.09
2014-3-13,75.6,60.4,46.1,41.0,28.2,21.0,78,34,15,30.00,29.87,7,1,17,2.67
2014-3-14,79.6,63.7,48.4,45.0,29.9,17.0,46,30,12,30.10,29.99,8,1,10,2.07
2014-3-15,83.4,68.3,54.1,38.0,30.0,22.0,46,25,15,30.25,30.09,9,1,18,3.63
2014-3-16,89.2,68.3,50.8,41.0,32.1,24.0,54,30,11,30.26,30.09,8,0,11,1.82
2014-3-17,81.8,66.9,53.4,42.0,32.7,24.0,52,30,16,30.09,29.76,5,1,15,1.43
2014-3-18,75.5,63.4,50.0,40.0,24.5,8.0,59,28,11,29.93,29.80,8,1,16,2.05
2014-3-19,80.9,63.1,48.1,46.0,23.1,11.0,57,24,11,30.04,29.93,4,0,13,2.65
2014-3-20,78.0,60.2,45.6,49.0,38.8,31.0,75,49,19,30.04,29.88,6,1,10,2.33
2014-3-21,69.5,55.9,44.3,50.0,46.1,40.0,90,71,48,29.97,29.88,6,1,12,2.21
2014-3-22,71.1,56.7,46.7,52.0,48.2,45.0,94,75,46,30.07,29.96,6,0,12,1.94
2014-3-23,74.5,57.5,42.9,52.0,47.8,41.0,95,73,39,30.09,29.97,4,0,7,1.54
2014-3-24,77.3,59.2,47.7,55.0,49.1,-99.9,96,75,43,30.07,29.94,3,0,8,0.92
2014-3-25,70.1,56.6,51.3,55.0,51.1,49.0,96,83,57,30.00,29.86,7,0,13,1.01
2014-3-26,61.6,55.0,50.2,50.0,47.6,45.0,95,77,58,29.93,29.83,7,1,12,1.53
2014-3-27,68.7,55.0,43.2,47.0,43.8,39.0,94,69,37,30.07,29.93,4,0,10,1.34
2014-3-28,74.1,57.3,44.6,52.0,43.3,-99.9,84,64,34,30.13,30.03,4,1,9,1.76
2014-3-29,77.3,59.7,45.9,51.0,46.3,40.0,93,66,26,30.12,29.93,10,1,14,2.08
2014-3-30,69.2,57.1,46.8,51.0,40.6,34.0,94,58,30,30.05,29.92,6,1,13,2.25
2014-3-31,65.9,52.8,41.2,47.0,39.2,32.0,87,61,43,30.00,29.90,7,1,14,1.92
2014-4-1,61.3,50.9,42.6,48.0,42.5,39.0,95,75,45,29.96,29.88,10,1,16,1.48
2014-4-2,57.8,49.3,42.4,43.0,41.3,39.0,92,75,53,30.03,29.89,8,0,9,2.19
2014-4-3,68.8,52.0,37.4,56.0,40.4,35.0,94,69,30,30.10,29.99,8,0,13,2.64
2014-4-4,66.2,53.0,42.2,45.0,41.6,34.0,92,69,35,30.02,29.88,8,1,13,4.33
2014-4-5,67.5,55.9,45.1,44.0,40.3,37.0,85,58,36,30.06,29.90,10,2,17,4.20
2014-4-6,82.7,61.3,44.2,45.0,34.8,-99.9,71,45,17,30.12,29.99,7,1,10,2.82
2014-4-7,89.4,68.0,48.7,45.0,38.8,34.0,67,39,16,30.12,30.03,13,1,14,3.05
2014-4-8,90.4,69.2,50.3,48.0,36.8,29.0,61,35,12,30.12,30.01,6,0,10,5.99
2014-4-9,89.8,68.4,50.6,43.0,28.9,13.0,51,27,6,30.06,29.93,6,0,10,2.47
2014-4-10,86.9,65.8,47.0,40.0,29.6,18.0,48,28,8,30.00,29.89,6,0,10,0.00
2014-4-11,83.6,66.3,52.6,45.0,31.7,20.0,74,31,10,29.93,29.80,8,1,13,0.00
2014-4-12,70.9,56.2,45.3,52.0,47.4,43.0,95,74,49,29.93,29.83,6,1,11,0.00
2014-4-13,72.4,59.3,50.4,53.0,49.0,47.0,88,70,47,30.01,29.89,7,1,11,0.00
2014-4-14,87.1,67.3,45.8,47.0,34.3,21.0,94,41,10,30.06,29.96,5,1,16,0.00
2014-4-15,84.6,66.8,51.7,45.0,36.6,-99.9,58,36,18,30.02,29.80,10,1,13,0.00
2014-4-16,81.2,64.1,46.8,55.0,46.8,36.0,86,56,35,29.83,29.73,6,1,11,0.00
2014-4-17,77.7,62.2,50.3,56.0,52.3,47.0,93,72,45,29.89,29.79,5,0,10,0.00
2014-4-18,74.8,61.8,53.3,56.0,52.4,49.0,90,73,44,29.92,29.83,4,1,11,0.00
2014-4-19,79.2,61.7,49.0,56.0,47.9,-99.9,100,69,38,30.00,29.91,5,0,10,0.00
2014-4-20,84.5,67.2,51.3,56.0,50.0,42.0,79,57,28,30.04,29.96,3,0,10,0.00
2014-4-21,86.3,67.5,51.0,53.0,48.1,39.0,89,56,19,30.04,29.91,10,1,11,0.00
2014-4-22,76.1,61.4,48.8,53.0,43.4,24.0,95,58,23,29.95,29.84,7,1,11,0.00
2014-4-23,80.2,62.0,45.8,39.0,32.0,26.0,57,34,17,29.96,29.85,8,1,11,0.01
2014-4-24,82.5,63.9,47.3,44.0,34.5,25.0,47,35,19,29.98,29.85,6,1,15,0.00
2014-4-25,68.9,58.1,48.6,51.0,47.1,36.0,87,68,47,29.90,29.73,8,1,13,0.00
2014-4-26,66.3,55.0,42.1,45.0,39.8,37.0,87,59,35,29.95,29.72,5,1,10,0.00
2014-4-27,74.6,61.3,47.9,44.0,36.9,31.0,67,43,25,30.00,29.91,7,1,13,0.00
2014-4-28,81.2,66.0,57.8,45.0,40.0,36.0,51,40,22,30.03,29.94,5,1,15,0.00
2014-4-29,85.7,71.9,56.8,40.0,26.0,15.0,53,22,8,30.14,30.01,14,2,23,0.00
2014-4-30,84.6,73.9,59.1,25.0,16.6,9.0,27,12,6,30.15,29.99,13,3,23,0.00
2014-5-1,90.7,76.7,57.8,32.0,20.7,12.0,26,13,6,30.11,29.97,10,2,21,0.00
2014-5-2,96.9,78.3,60.9,50.0,36.9,25.0,46,25,8,30.02,29.91,5,1,12,0.00
2014-5-3,91.8,74.3,57.6,42.0,33.1,24.0,40,24,12,29.94,29.86,7,1,10,0.00
2014-5-4,85.3,69.4,55.3,47.0,37.4,23.0,53,35,11,29.96,29.86,6,1,15,0.00
2014-5-5,73.5,60.9,49.5,53.0,46.8,40.0,81,62,40,29.97,29.86,7,1,13,0.00
2014-5-6,65.8,57.5,48.3,48.0,42.1,37.0,85,59,39,29.85,29.76,6,1,11,0.00
2014-5-7,68.7,56.9,44.9,50.0,44.4,39.0,81,64,44,29.97,29.82,7,1,13,0.00
2014-5-8,73.6,59.5,46.1,52.0,46.4,42.0,86,64,42,30.03,29.95,7,1,10,0.00
2014-5-9,79.8,64.2,48.5,54.0,49.3,44.0,85,61,39,30.04,29.91,6,1,12,0.00
2014-5-10,80.8,68.3,55.3,49.0,38.5,29.0,63,36,18,29.94,29.76,8,2,14,0.00
2014-5-11,81.9,66.5,51.6,39.0,28.7,16.0,60,28,9,30.00,29.85,6,1,14,0.00
2014-5-12,88.3,71.4,53.3,34.0,27.1,22.0,34,21,9,30.06,29.95,6,1,17,0.00
2014-5-13,88.3,74.1,54.7,32.0,24.7,11.0,34,18,6,30.16,30.04,8,2,20,0.00
2014-5-14,93.2,79.3,61.7,30.0,21.4,15.0,20,12,7,30.12,29.99,12,2,22,0.00
2014-5-15,100.3,79.8,60.5,42.0,27.6,20.0,31,16,7,30.07,29.96,6,1,13,0.00
2014-5-16,97.6,80.7,64.9,48.0,36.9,26.0,40,22,11,30.02,29.88,6,1,11,0.00
2014-5-17,69.5,66.7,63.3,41.0,35.0,31.0,36,31,28,29.91,29.87,1,0,4,0.00